sensor_id;sensor_type;location;lat;lon;timestamp;P1;durP1;ratioP1;P2;durP2;ratioP2
20870;SDS011;10595;51.218;3.452;2023-08-01T00:01:01;22.50;;;9.03;;
20870;SDS011;10595;51.218;3.452;2023-08-01T00:03:28;22.20;;;8.97;;
20870;SDS011;10595;51.218;3.452;2023-08-01T00:05:54;22.97;;;9.77;;
20870;SDS011;10595;51.218;3.452;2023-08-01T00:08:20;22.50;;;10.33;;
20870;SDS011;10595;51.218;3.452;2023-08-01T00:10:46;24.23;;;9.83;;
20870;SDS011;10595;51.218;3.452;2023-08-01T00:13:12;23.43;;;10.30;;
20870;SDS011;10595;51.218;3.452;2023-08-01T00:15:38;16.67;;;9.83;;
20870;SDS011;10595;51.218;3.452;2023-08-01T00:18:04;23.10;;;9.90;;
20870;SDS011;10595;51.218;3.452;2023-08-01T00:20:30;28.03;;;9.63;;
20870;SDS011;10595;51.218;3.452;2023-08-01T00:22:56;19.77;;;9.47;;
20870;SDS011;10595;51.218;3.452;2023-08-01T00:25:22;17.37;;;9.23;;
20870;SDS011;10595;51.218;3.452;2023-08-01T00:27:48;19.67;;;10.23;;
20870;SDS011;10595;51.218;3.452;2023-08-01T00:30:16;23.77;;;9.50;;
20870;SDS011;10595;51.218;3.452;2023-08-01T00:32:42;24.33;;;10.77;;
20870;SDS011;10595;51.218;3.452;2023-08-01T00:35:08;22.87;;;9.53;;
20870;SDS011;10595;51.218;3.452;2023-08-01T00:37:34;19.90;;;10.53;;
20870;SDS011;10595;51.218;3.452;2023-08-01T00:40:00;32.03;;;11.67;;
20870;SDS011;10595;51.218;3.452;2023-08-01T00:42:26;23.00;;;11.40;;
20870;SDS011;10595;51.218;3.452;2023-08-01T00:44:52;25.83;;;11.90;;
20870;SDS011;10595;51.218;3.452;2023-08-01T00:47:19;25.87;;;12.00;;
20870;SDS011;10595;51.218;3.452;2023-08-01T00:49:45;21.10;;;11.37;;
20870;SDS011;10595;51.218;3.452;2023-08-01T00:52:11;30.83;;;12.80;;
20870;SDS011;10595;51.218;3.452;2023-08-01T00:54:37;27.20;;;12.73;;
20870;SDS011;10595;51.218;3.452;2023-08-01T00:57:03;29.07;;;12.60;;
20870;SDS011;10595;51.218;3.452;2023-08-01T00:59:30;24.43;;;11.63;;
20870;SDS011;10595;51.218;3.452;2023-08-01T01:01:56;26.33;;;11.50;;
20870;SDS011;10595;51.218;3.452;2023-08-01T01:04:24;26.73;;;11.50;;
20870;SDS011;10595;51.218;3.452;2023-08-01T01:09:22;25.47;;;11.97;;
20870;SDS011;10595;51.218;3.452;2023-08-01T01:11:48;19.17;;;11.20;;
20870;SDS011;10595;51.218;3.452;2023-08-01T01:14:14;20.90;;;10.80;;
20870;SDS011;10595;51.218;3.452;2023-08-01T01:16:40;30.20;;;11.73;;
20870;SDS011;10595;51.218;3.452;2023-08-01T01:19:06;27.13;;;12.33;;
20870;SDS011;10595;51.218;3.452;2023-08-01T01:21:34;21.00;;;10.23;;
20870;SDS011;10595;51.218;3.452;2023-08-01T01:24:00;24.77;;;11.03;;
20870;SDS011;10595;51.218;3.452;2023-08-01T01:26:27;24.27;;;11.47;;
20870;SDS011;10595;51.218;3.452;2023-08-01T01:28:54;28.53;;;13.17;;
20870;SDS011;10595;51.218;3.452;2023-08-01T01:31:20;30.90;;;12.97;;
20870;SDS011;10595;51.218;3.452;2023-08-01T01:33:46;28.33;;;11.97;;
20870;SDS011;10595;51.218;3.452;2023-08-01T01:36:13;24.97;;;12.60;;
20870;SDS011;10595;51.218;3.452;2023-08-01T01:38:39;27.13;;;12.87;;
20870;SDS011;10595;51.218;3.452;2023-08-01T01:41:05;25.63;;;13.43;;
20870;SDS011;10595;51.218;3.452;2023-08-01T01:43:31;24.97;;;12.53;;
20870;SDS011;10595;51.218;3.452;2023-08-01T01:45:57;34.50;;;13.03;;
20870;SDS011;10595;51.218;3.452;2023-08-01T01:48:23;28.93;;;14.80;;
20870;SDS011;10595;51.218;3.452;2023-08-01T01:50:49;26.13;;;13.63;;
20870;SDS011;10595;51.218;3.452;2023-08-01T01:53:15;31.40;;;14.53;;
20870;SDS011;10595;51.218;3.452;2023-08-01T01:55:42;27.50;;;13.23;;
20870;SDS011;10595;51.218;3.452;2023-08-01T01:58:08;34.10;;;15.20;;
20870;SDS011;10595;51.218;3.452;2023-08-01T02:00:34;26.53;;;14.47;;
20870;SDS011;10595;51.218;3.452;2023-08-01T02:03:00;33.40;;;15.17;;
20870;SDS011;10595;51.218;3.452;2023-08-01T02:05:28;29.17;;;14.37;;
20870;SDS011;10595;51.218;3.452;2023-08-01T02:07:54;30.20;;;13.77;;
20870;SDS011;10595;51.218;3.452;2023-08-01T02:10:20;29.67;;;13.77;;
20870;SDS011;10595;51.218;3.452;2023-08-01T02:12:46;26.07;;;12.60;;
20870;SDS011;10595;51.218;3.452;2023-08-01T02:15:12;24.63;;;12.87;;
20870;SDS011;10595;51.218;3.452;2023-08-01T02:17:38;24.87;;;13.17;;
20870;SDS011;10595;51.218;3.452;2023-08-01T02:20:05;26.83;;;13.10;;
20870;SDS011;10595;51.218;3.452;2023-08-01T02:22:32;30.50;;;14.43;;
20870;SDS011;10595;51.218;3.452;2023-08-01T02:24:58;27.57;;;12.80;;
20870;SDS011;10595;51.218;3.452;2023-08-01T02:27:24;32.63;;;13.97;;
20870;SDS011;10595;51.218;3.452;2023-08-01T02:29:50;20.60;;;12.07;;
20870;SDS011;10595;51.218;3.452;2023-08-01T02:32:16;25.17;;;13.93;;
20870;SDS011;10595;51.218;3.452;2023-08-01T02:34:43;24.10;;;12.43;;
20870;SDS011;10595;51.218;3.452;2023-08-01T02:37:09;28.73;;;12.80;;
20870;SDS011;10595;51.218;3.452;2023-08-01T02:39:35;24.13;;;11.80;;
20870;SDS011;10595;51.218;3.452;2023-08-01T02:42:01;24.73;;;12.13;;
20870;SDS011;10595;51.218;3.452;2023-08-01T02:44:29;29.07;;;12.77;;
20870;SDS011;10595;51.218;3.452;2023-08-01T02:46:55;23.23;;;11.30;;
20870;SDS011;10595;51.218;3.452;2023-08-01T02:49:21;22.10;;;11.20;;
20870;SDS011;10595;51.218;3.452;2023-08-01T02:51:47;26.57;;;12.53;;
20870;SDS011;10595;51.218;3.452;2023-08-01T02:54:13;28.93;;;11.97;;
20870;SDS011;10595;51.218;3.452;2023-08-01T02:56:39;28.10;;;11.40;;
20870;SDS011;10595;51.218;3.452;2023-08-01T02:59:06;23.37;;;11.23;;
20870;SDS011;10595;51.218;3.452;2023-08-01T03:01:34;26.33;;;10.33;;
20870;SDS011;10595;51.218;3.452;2023-08-01T03:04:02;24.70;;;10.60;;
20870;SDS011;10595;51.218;3.452;2023-08-01T03:06:28;24.30;;;10.50;;
20870;SDS011;10595;51.218;3.452;2023-08-01T03:08:53;18.93;;;9.57;;
20870;SDS011;10595;51.218;3.452;2023-08-01T03:11:19;24.23;;;9.17;;
20870;SDS011;10595;51.218;3.452;2023-08-01T03:13:45;18.43;;;8.80;;
20870;SDS011;10595;51.218;3.452;2023-08-01T03:16:11;19.70;;;9.03;;
20870;SDS011;10595;51.218;3.452;2023-08-01T03:18:38;23.17;;;8.63;;
20870;SDS011;10595;51.218;3.452;2023-08-01T03:21:04;21.53;;;9.30;;
20870;SDS011;10595;51.218;3.452;2023-08-01T03:23:30;18.20;;;8.30;;
20870;SDS011;10595;51.218;3.452;2023-08-01T03:25:56;19.63;;;8.13;;
20870;SDS011;10595;51.218;3.452;2023-08-01T03:28:22;20.93;;;8.10;;
20870;SDS011;10595;51.218;3.452;2023-08-01T03:30:48;15.50;;;7.43;;
20870;SDS011;10595;51.218;3.452;2023-08-01T03:33:15;17.10;;;7.90;;
20870;SDS011;10595;51.218;3.452;2023-08-01T03:35:41;18.00;;;8.17;;
20870;SDS011;10595;51.218;3.452;2023-08-01T03:38:08;22.73;;;7.57;;
20870;SDS011;10595;51.218;3.452;2023-08-01T03:40:34;19.73;;;8.40;;
20870;SDS011;10595;51.218;3.452;2023-08-01T03:43:00;20.03;;;7.27;;
20870;SDS011;10595;51.218;3.452;2023-08-01T03:45:26;20.87;;;7.87;;
20870;SDS011;10595;51.218;3.452;2023-08-01T03:47:52;16.07;;;7.23;;
20870;SDS011;10595;51.218;3.452;2023-08-01T03:50:18;17.97;;;7.27;;
20870;SDS011;10595;51.218;3.452;2023-08-01T03:52:44;21.90;;;7.73;;
20870;SDS011;10595;51.218;3.452;2023-08-01T03:55:10;18.73;;;7.23;;
20870;SDS011;10595;51.218;3.452;2023-08-01T03:57:36;19.97;;;7.43;;
20870;SDS011;10595;51.218;3.452;2023-08-01T04:00:04;21.37;;;7.73;;
20870;SDS011;10595;51.218;3.452;2023-08-01T04:02:30;15.07;;;7.13;;
20870;SDS011;10595;51.218;3.452;2023-08-01T04:04:56;17.17;;;6.83;;
20870;SDS011;10595;51.218;3.452;2023-08-01T04:07:22;21.73;;;6.60;;
20870;SDS011;10595;51.218;3.452;2023-08-01T04:09:48;16.00;;;6.83;;
20870;SDS011;10595;51.218;3.452;2023-08-01T04:12:15;20.07;;;7.03;;
20870;SDS011;10595;51.218;3.452;2023-08-01T04:14:41;20.33;;;7.13;;
20870;SDS011;10595;51.218;3.452;2023-08-01T04:17:07;19.63;;;6.83;;
20870;SDS011;10595;51.218;3.452;2023-08-01T04:19:33;19.83;;;6.93;;
20870;SDS011;10595;51.218;3.452;2023-08-01T04:21:59;17.70;;;6.73;;
20870;SDS011;10595;51.218;3.452;2023-08-01T04:24:25;16.23;;;6.40;;
20870;SDS011;10595;51.218;3.452;2023-08-01T04:26:52;15.40;;;6.67;;
20870;SDS011;10595;51.218;3.452;2023-08-01T04:29:19;20.37;;;6.83;;
20870;SDS011;10595;51.218;3.452;2023-08-01T04:31:45;14.37;;;6.87;;
20870;SDS011;10595;51.218;3.452;2023-08-01T04:34:11;19.57;;;6.70;;
20870;SDS011;10595;51.218;3.452;2023-08-01T04:36:37;18.40;;;6.60;;
20870;SDS011;10595;51.218;3.452;2023-08-01T04:39:03;16.93;;;7.37;;
20870;SDS011;10595;51.218;3.452;2023-08-01T04:41:29;16.07;;;7.70;;
20870;SDS011;10595;51.218;3.452;2023-08-01T04:43:55;20.13;;;7.27;;
20870;SDS011;10595;51.218;3.452;2023-08-01T04:46:21;17.10;;;6.57;;
20870;SDS011;10595;51.218;3.452;2023-08-01T04:48:47;16.83;;;7.67;;
20870;SDS011;10595;51.218;3.452;2023-08-01T04:51:13;19.13;;;7.53;;
20870;SDS011;10595;51.218;3.452;2023-08-01T04:53:39;21.67;;;7.00;;
20870;SDS011;10595;51.218;3.452;2023-08-01T04:56:05;14.10;;;6.87;;
20870;SDS011;10595;51.218;3.452;2023-08-01T04:58:31;12.50;;;6.20;;
20870;SDS011;10595;51.218;3.452;2023-08-01T05:00:57;16.87;;;6.90;;
20870;SDS011;10595;51.218;3.452;2023-08-01T05:03:23;16.10;;;7.00;;
20870;SDS011;10595;51.218;3.452;2023-08-01T05:05:49;18.30;;;7.10;;
20870;SDS011;10595;51.218;3.452;2023-08-01T05:08:15;13.40;;;6.50;;
20870;SDS011;10595;51.218;3.452;2023-08-01T05:10:41;16.43;;;7.70;;
20870;SDS011;10595;51.218;3.452;2023-08-01T05:13:07;18.70;;;6.83;;
20870;SDS011;10595;51.218;3.452;2023-08-01T05:15:33;21.13;;;7.50;;
20870;SDS011;10595;51.218;3.452;2023-08-01T05:17:59;17.40;;;6.20;;
20870;SDS011;10595;51.218;3.452;2023-08-01T05:20:25;14.70;;;6.50;;
20870;SDS011;10595;51.218;3.452;2023-08-01T05:22:55;17.33;;;7.40;;
20870;SDS011;10595;51.218;3.452;2023-08-01T05:25:21;19.43;;;6.77;;
20870;SDS011;10595;51.218;3.452;2023-08-01T05:27:47;18.87;;;6.80;;
20870;SDS011;10595;51.218;3.452;2023-08-01T05:30:13;15.87;;;6.77;;
20870;SDS011;10595;51.218;3.452;2023-08-01T05:32:39;18.87;;;6.53;;
20870;SDS011;10595;51.218;3.452;2023-08-01T05:35:06;17.87;;;6.43;;
20870;SDS011;10595;51.218;3.452;2023-08-01T05:37:32;19.10;;;7.07;;
20870;SDS011;10595;51.218;3.452;2023-08-01T05:39:58;20.63;;;6.90;;
20870;SDS011;10595;51.218;3.452;2023-08-01T05:42:24;18.93;;;6.60;;
20870;SDS011;10595;51.218;3.452;2023-08-01T05:44:50;16.30;;;6.80;;
20870;SDS011;10595;51.218;3.452;2023-08-01T05:47:16;17.27;;;6.27;;
20870;SDS011;10595;51.218;3.452;2023-08-01T05:49:42;17.43;;;6.53;;
20870;SDS011;10595;51.218;3.452;2023-08-01T05:52:08;16.47;;;7.67;;
20870;SDS011;10595;51.218;3.452;2023-08-01T05:54:34;15.80;;;7.40;;
20870;SDS011;10595;51.218;3.452;2023-08-01T05:57:00;17.20;;;6.80;;
20870;SDS011;10595;51.218;3.452;2023-08-01T05:59:26;20.70;;;7.17;;
20870;SDS011;10595;51.218;3.452;2023-08-01T06:01:52;18.90;;;7.37;;
20870;SDS011;10595;51.218;3.452;2023-08-01T06:04:18;16.33;;;7.53;;
20870;SDS011;10595;51.218;3.452;2023-08-01T06:06:44;18.80;;;7.63;;
20870;SDS011;10595;51.218;3.452;2023-08-01T06:09:10;21.43;;;8.00;;
20870;SDS011;10595;51.218;3.452;2023-08-01T06:11:36;14.33;;;7.70;;
20870;SDS011;10595;51.218;3.452;2023-08-01T06:14:02;18.60;;;7.60;;
20870;SDS011;10595;51.218;3.452;2023-08-01T06:16:28;18.70;;;7.50;;
20870;SDS011;10595;51.218;3.452;2023-08-01T06:18:54;16.27;;;7.27;;
20870;SDS011;10595;51.218;3.452;2023-08-01T06:21:21;22.10;;;7.13;;
20870;SDS011;10595;51.218;3.452;2023-08-01T06:23:47;20.83;;;7.60;;
20870;SDS011;10595;51.218;3.452;2023-08-01T06:26:13;18.47;;;7.43;;
20870;SDS011;10595;51.218;3.452;2023-08-01T06:28:40;15.80;;;7.00;;
20870;SDS011;10595;51.218;3.452;2023-08-01T06:31:06;19.33;;;7.73;;
20870;SDS011;10595;51.218;3.452;2023-08-01T06:33:32;15.77;;;7.10;;
20870;SDS011;10595;51.218;3.452;2023-08-01T06:35:58;13.70;;;6.37;;
20870;SDS011;10595;51.218;3.452;2023-08-01T06:38:24;16.90;;;6.93;;
20870;SDS011;10595;51.218;3.452;2023-08-01T06:40:50;19.60;;;7.13;;
20870;SDS011;10595;51.218;3.452;2023-08-01T06:43:16;17.17;;;7.60;;
20870;SDS011;10595;51.218;3.452;2023-08-01T06:45:42;17.87;;;6.97;;
20870;SDS011;10595;51.218;3.452;2023-08-01T06:48:08;18.33;;;6.80;;
20870;SDS011;10595;51.218;3.452;2023-08-01T06:50:34;21.63;;;6.80;;
20870;SDS011;10595;51.218;3.452;2023-08-01T06:53:00;15.40;;;5.77;;
20870;SDS011;10595;51.218;3.452;2023-08-01T06:55:26;12.37;;;5.60;;
20870;SDS011;10595;51.218;3.452;2023-08-01T06:57:52;14.33;;;6.10;;
20870;SDS011;10595;51.218;3.452;2023-08-01T07:00:18;17.13;;;5.73;;
20870;SDS011;10595;51.218;3.452;2023-08-01T07:02:44;16.57;;;7.03;;
20870;SDS011;10595;51.218;3.452;2023-08-01T07:05:11;15.97;;;6.27;;
20870;SDS011;10595;51.218;3.452;2023-08-01T07:07:37;13.80;;;5.70;;
20870;SDS011;10595;51.218;3.452;2023-08-01T07:10:03;14.90;;;5.77;;
20870;SDS011;10595;51.218;3.452;2023-08-01T07:12:29;14.53;;;4.73;;
20870;SDS011;10595;51.218;3.452;2023-08-01T07:14:55;14.17;;;5.20;;
20870;SDS011;10595;51.218;3.452;2023-08-01T07:17:21;10.90;;;4.57;;
20870;SDS011;10595;51.218;3.452;2023-08-01T07:19:47;13.47;;;4.50;;
20870;SDS011;10595;51.218;3.452;2023-08-01T07:22:13;11.37;;;4.50;;
20870;SDS011;10595;51.218;3.452;2023-08-01T07:24:39;12.07;;;4.47;;
20870;SDS011;10595;51.218;3.452;2023-08-01T07:27:05;15.67;;;4.20;;
20870;SDS011;10595;51.218;3.452;2023-08-01T07:29:32;12.73;;;4.57;;
20870;SDS011;10595;51.218;3.452;2023-08-01T07:31:58;10.80;;;4.53;;
20870;SDS011;10595;51.218;3.452;2023-08-01T07:34:24;15.63;;;4.43;;
20870;SDS011;10595;51.218;3.452;2023-08-01T07:36:50;20.47;;;4.87;;
20870;SDS011;10595;51.218;3.452;2023-08-01T07:39:16;15.43;;;4.73;;
20870;SDS011;10595;51.218;3.452;2023-08-01T07:41:42;13.13;;;4.33;;
20870;SDS011;10595;51.218;3.452;2023-08-01T07:44:08;11.93;;;4.10;;
20870;SDS011;10595;51.218;3.452;2023-08-01T07:46:34;10.77;;;3.70;;
20870;SDS011;10595;51.218;3.452;2023-08-01T07:49:00;13.77;;;4.07;;
20870;SDS011;10595;51.218;3.452;2023-08-01T07:51:26;9.87;;;3.67;;
20870;SDS011;10595;51.218;3.452;2023-08-01T07:53:53;14.43;;;3.67;;
20870;SDS011;10595;51.218;3.452;2023-08-01T07:56:19;11.53;;;4.00;;
20870;SDS011;10595;51.218;3.452;2023-08-01T07:58:45;12.20;;;3.67;;
20870;SDS011;10595;51.218;3.452;2023-08-01T08:01:11;10.53;;;3.50;;
20870;SDS011;10595;51.218;3.452;2023-08-01T08:03:37;16.53;;;3.90;;
20870;SDS011;10595;51.218;3.452;2023-08-01T08:06:03;11.60;;;3.97;;
20870;SDS011;10595;51.218;3.452;2023-08-01T08:08:30;10.23;;;3.13;;
20870;SDS011;10595;51.218;3.452;2023-08-01T08:10:58;6.53;;;3.37;;
20870;SDS011;10595;51.218;3.452;2023-08-01T08:13:26;9.17;;;3.00;;
20870;SDS011;10595;51.218;3.452;2023-08-01T08:15:52;9.33;;;3.10;;
20870;SDS011;10595;51.218;3.452;2023-08-01T08:18:18;11.33;;;3.27;;
20870;SDS011;10595;51.218;3.452;2023-08-01T08:20:45;10.20;;;3.30;;
20870;SDS011;10595;51.218;3.452;2023-08-01T08:23:11;7.20;;;2.90;;
20870;SDS011;10595;51.218;3.452;2023-08-01T08:25:43;10.77;;;2.77;;
20870;SDS011;10595;51.218;3.452;2023-08-01T08:28:11;12.83;;;3.03;;
20870;SDS011;10595;51.218;3.452;2023-08-01T08:30:37;7.33;;;2.87;;
20870;SDS011;10595;51.218;3.452;2023-08-01T08:33:03;8.07;;;3.10;;
20870;SDS011;10595;51.218;3.452;2023-08-01T08:35:31;10.37;;;3.13;;
20870;SDS011;10595;51.218;3.452;2023-08-01T08:37:59;12.70;;;3.33;;
20870;SDS011;10595;51.218;3.452;2023-08-01T08:40:25;9.50;;;2.83;;
20870;SDS011;10595;51.218;3.452;2023-08-01T08:42:52;8.50;;;2.50;;
20870;SDS011;10595;51.218;3.452;2023-08-01T08:45:19;9.53;;;3.00;;
20870;SDS011;10595;51.218;3.452;2023-08-01T08:47:47;8.23;;;3.07;;
20870;SDS011;10595;51.218;3.452;2023-08-01T08:50:14;5.93;;;2.20;;
20870;SDS011;10595;51.218;3.452;2023-08-01T08:52:40;8.93;;;3.10;;
20870;SDS011;10595;51.218;3.452;2023-08-01T08:55:06;7.73;;;2.87;;
20870;SDS011;10595;51.218;3.452;2023-08-01T08:57:33;7.73;;;2.90;;
20870;SDS011;10595;51.218;3.452;2023-08-01T09:00:00;9.07;;;2.90;;
20870;SDS011;10595;51.218;3.452;2023-08-01T09:02:29;6.37;;;2.40;;
20870;SDS011;10595;51.218;3.452;2023-08-01T09:04:57;8.60;;;2.70;;
20870;SDS011;10595;51.218;3.452;2023-08-01T09:07:23;8.90;;;3.30;;
20870;SDS011;10595;51.218;3.452;2023-08-01T09:09:49;9.50;;;2.20;;
20870;SDS011;10595;51.218;3.452;2023-08-01T09:12:15;12.40;;;2.63;;
20870;SDS011;10595;51.218;3.452;2023-08-01T09:14:42;7.33;;;2.23;;
20870;SDS011;10595;51.218;3.452;2023-08-01T09:17:08;7.67;;;2.57;;
20870;SDS011;10595;51.218;3.452;2023-08-01T09:19:35;11.23;;;2.37;;
20870;SDS011;10595;51.218;3.452;2023-08-01T09:22:01;10.83;;;2.80;;
20870;SDS011;10595;51.218;3.452;2023-08-01T09:24:27;10.07;;;2.57;;
20870;SDS011;10595;51.218;3.452;2023-08-01T09:27:01;5.30;;;2.43;;
20870;SDS011;10595;51.218;3.452;2023-08-01T09:29:28;8.43;;;2.83;;
20870;SDS011;10595;51.218;3.452;2023-08-01T09:31:56;11.07;;;2.53;;
20870;SDS011;10595;51.218;3.452;2023-08-01T09:34:23;7.40;;;2.93;;
20870;SDS011;10595;51.218;3.452;2023-08-01T09:36:49;14.37;;;2.80;;
20870;SDS011;10595;51.218;3.452;2023-08-01T09:39:19;6.10;;;2.50;;
20870;SDS011;10595;51.218;3.452;2023-08-01T09:41:46;8.03;;;2.60;;
20870;SDS011;10595;51.218;3.452;2023-08-01T09:44:14;10.07;;;2.50;;
20870;SDS011;10595;51.218;3.452;2023-08-01T09:46:40;9.13;;;2.80;;
20870;SDS011;10595;51.218;3.452;2023-08-01T09:49:08;10.43;;;2.77;;
20870;SDS011;10595;51.218;3.452;2023-08-01T09:51:45;11.43;;;2.53;;
20870;SDS011;10595;51.218;3.452;2023-08-01T09:54:11;8.93;;;2.70;;
20870;SDS011;10595;51.218;3.452;2023-08-01T09:56:37;6.97;;;2.27;;
20870;SDS011;10595;51.218;3.452;2023-08-01T09:59:04;9.23;;;3.13;;
20870;SDS011;10595;51.218;3.452;2023-08-01T10:01:30;8.67;;;2.60;;
20870;SDS011;10595;51.218;3.452;2023-08-01T10:03:57;9.27;;;2.60;;
20870;SDS011;10595;51.218;3.452;2023-08-01T10:06:24;11.83;;;3.27;;
20870;SDS011;10595;51.218;3.452;2023-08-01T10:08:54;5.57;;;2.43;;
20870;SDS011;10595;51.218;3.452;2023-08-01T10:11:21;5.33;;;1.70;;
20870;SDS011;10595;51.218;3.452;2023-08-01T10:13:47;11.20;;;2.70;;
20870;SDS011;10595;51.218;3.452;2023-08-01T10:16:13;8.83;;;2.20;;
20870;SDS011;10595;51.218;3.452;2023-08-01T10:18:40;8.03;;;2.70;;
20870;SDS011;10595;51.218;3.452;2023-08-01T10:21:13;6.87;;;2.67;;
20870;SDS011;10595;51.218;3.452;2023-08-01T10:23:39;9.87;;;2.20;;
20870;SDS011;10595;51.218;3.452;2023-08-01T10:26:06;9.30;;;2.20;;
20870;SDS011;10595;51.218;3.452;2023-08-01T10:28:33;7.03;;;2.50;;
20870;SDS011;10595;51.218;3.452;2023-08-01T10:31:09;7.93;;;2.40;;
20870;SDS011;10595;51.218;3.452;2023-08-01T10:33:36;8.03;;;2.43;;
20870;SDS011;10595;51.218;3.452;2023-08-01T10:36:11;6.93;;;2.17;;
20870;SDS011;10595;51.218;3.452;2023-08-01T10:38:44;7.27;;;2.57;;
20870;SDS011;10595;51.218;3.452;2023-08-01T10:41:17;8.40;;;2.20;;
20870;SDS011;10595;51.218;3.452;2023-08-01T10:43:44;7.17;;;2.50;;
20870;SDS011;10595;51.218;3.452;2023-08-01T10:46:10;9.23;;;2.57;;
20870;SDS011;10595;51.218;3.452;2023-08-01T10:48:47;6.30;;;2.30;;
20870;SDS011;10595;51.218;3.452;2023-08-01T10:51:13;7.07;;;2.40;;
20870;SDS011;10595;51.218;3.452;2023-08-01T10:53:39;6.97;;;2.27;;
20870;SDS011;10595;51.218;3.452;2023-08-01T10:56:05;6.97;;;2.33;;
20870;SDS011;10595;51.218;3.452;2023-08-01T10:58:31;7.20;;;2.00;;
20870;SDS011;10595;51.218;3.452;2023-08-01T11:00:58;4.63;;;1.50;;
20870;SDS011;10595;51.218;3.452;2023-08-01T11:03:33;6.57;;;1.60;;
20870;SDS011;10595;51.218;3.452;2023-08-01T11:05:59;7.63;;;2.03;;
20870;SDS011;10595;51.218;3.452;2023-08-01T11:08:33;10.43;;;2.53;;
20870;SDS011;10595;51.218;3.452;2023-08-01T11:10:59;10.70;;;2.37;;
20870;SDS011;10595;51.218;3.452;2023-08-01T11:13:25;5.23;;;1.97;;
20870;SDS011;10595;51.218;3.452;2023-08-01T11:15:51;7.50;;;1.70;;
20870;SDS011;10595;51.218;3.452;2023-08-01T11:18:19;5.80;;;2.20;;
20870;SDS011;10595;51.218;3.452;2023-08-01T11:20:45;6.70;;;1.83;;
20870;SDS011;10595;51.218;3.452;2023-08-01T11:23:11;7.03;;;2.07;;
20870;SDS011;10595;51.218;3.452;2023-08-01T11:25:38;5.77;;;2.27;;
20870;SDS011;10595;51.218;3.452;2023-08-01T11:28:05;5.53;;;1.63;;
20870;SDS011;10595;51.218;3.452;2023-08-01T11:30:32;5.87;;;1.93;;
20870;SDS011;10595;51.218;3.452;2023-08-01T11:32:59;5.97;;;1.93;;
20870;SDS011;10595;51.218;3.452;2023-08-01T11:35:25;7.43;;;1.80;;
20870;SDS011;10595;51.218;3.452;2023-08-01T11:37:51;5.03;;;2.00;;
20870;SDS011;10595;51.218;3.452;2023-08-01T11:40:17;4.13;;;2.03;;
20870;SDS011;10595;51.218;3.452;2023-08-01T11:42:48;5.60;;;1.50;;
20870;SDS011;10595;51.218;3.452;2023-08-01T11:45:16;3.23;;;1.53;;
20870;SDS011;10595;51.218;3.452;2023-08-01T11:47:46;5.03;;;1.57;;
20870;SDS011;10595;51.218;3.452;2023-08-01T11:50:12;3.00;;;1.23;;
20870;SDS011;10595;51.218;3.452;2023-08-01T11:52:38;6.67;;;2.07;;
20870;SDS011;10595;51.218;3.452;2023-08-01T11:55:05;7.10;;;1.50;;
20870;SDS011;10595;51.218;3.452;2023-08-01T11:57:31;6.00;;;1.90;;
20870;SDS011;10595;51.218;3.452;2023-08-01T11:59:57;5.20;;;1.70;;
20870;SDS011;10595;51.218;3.452;2023-08-01T12:02:26;6.87;;;2.23;;
20870;SDS011;10595;51.218;3.452;2023-08-01T12:04:54;4.40;;;1.40;;
20870;SDS011;10595;51.218;3.452;2023-08-01T12:07:20;5.40;;;1.97;;
20870;SDS011;10595;51.218;3.452;2023-08-01T12:09:56;6.67;;;1.80;;
20870;SDS011;10595;51.218;3.452;2023-08-01T12:12:22;7.10;;;1.70;;
20870;SDS011;10595;51.218;3.452;2023-08-01T12:14:48;7.60;;;1.87;;
20870;SDS011;10595;51.218;3.452;2023-08-01T12:17:14;4.33;;;1.70;;
20870;SDS011;10595;51.218;3.452;2023-08-01T12:19:40;3.90;;;1.70;;
20870;SDS011;10595;51.218;3.452;2023-08-01T12:22:06;5.77;;;1.60;;
20870;SDS011;10595;51.218;3.452;2023-08-01T12:24:32;5.97;;;2.00;;
20870;SDS011;10595;51.218;3.452;2023-08-01T12:27:02;7.67;;;1.90;;
20870;SDS011;10595;51.218;3.452;2023-08-01T12:29:28;4.23;;;1.70;;
20870;SDS011;10595;51.218;3.452;2023-08-01T12:31:54;5.63;;;1.70;;
20870;SDS011;10595;51.218;3.452;2023-08-01T12:34:20;5.73;;;1.43;;
20870;SDS011;10595;51.218;3.452;2023-08-01T12:36:46;6.83;;;1.63;;
20870;SDS011;10595;51.218;3.452;2023-08-01T12:39:12;5.40;;;2.10;;
20870;SDS011;10595;51.218;3.452;2023-08-01T12:41:38;4.97;;;2.00;;
20870;SDS011;10595;51.218;3.452;2023-08-01T12:44:04;4.57;;;1.57;;
20870;SDS011;10595;51.218;3.452;2023-08-01T12:46:30;7.00;;;2.00;;
20870;SDS011;10595;51.218;3.452;2023-08-01T12:48:56;5.10;;;1.30;;
20870;SDS011;10595;51.218;3.452;2023-08-01T12:51:22;7.50;;;1.83;;
20870;SDS011;10595;51.218;3.452;2023-08-01T12:53:48;3.40;;;1.60;;
20870;SDS011;10595;51.218;3.452;2023-08-01T12:56:14;3.40;;;1.53;;
20870;SDS011;10595;51.218;3.452;2023-08-01T12:58:40;4.50;;;1.50;;
20870;SDS011;10595;51.218;3.452;2023-08-01T13:01:06;7.13;;;2.03;;
20870;SDS011;10595;51.218;3.452;2023-08-01T13:03:33;6.67;;;1.93;;
20870;SDS011;10595;51.218;3.452;2023-08-01T13:05:59;6.60;;;2.17;;
20870;SDS011;10595;51.218;3.452;2023-08-01T13:08:25;10.20;;;2.03;;
20870;SDS011;10595;51.218;3.452;2023-08-01T13:10:51;4.57;;;2.00;;
20870;SDS011;10595;51.218;3.452;2023-08-01T13:13:17;3.73;;;1.50;;
20870;SDS011;10595;51.218;3.452;2023-08-01T13:15:43;4.93;;;1.93;;
20870;SDS011;10595;51.218;3.452;2023-08-01T13:18:09;5.07;;;1.87;;
20870;SDS011;10595;51.218;3.452;2023-08-01T13:20:36;4.00;;;1.85;;
20870;SDS011;10595;51.218;3.452;2023-08-01T13:23:02;4.80;;;1.30;;
20870;SDS011;10595;51.218;3.452;2023-08-01T13:25:29;5.20;;;2.07;;
20870;SDS011;10595;51.218;3.452;2023-08-01T13:27:55;3.13;;;1.30;;
20870;SDS011;10595;51.218;3.452;2023-08-01T13:30:21;4.00;;;1.50;;
20870;SDS011;10595;51.218;3.452;2023-08-01T13:32:47;4.77;;;1.43;;
20870;SDS011;10595;51.218;3.452;2023-08-01T13:35:13;6.50;;;1.83;;
20870;SDS011;10595;51.218;3.452;2023-08-01T13:37:39;6.97;;;1.90;;
20870;SDS011;10595;51.218;3.452;2023-08-01T13:40:05;5.33;;;1.93;;
20870;SDS011;10595;51.218;3.452;2023-08-01T13:42:31;4.50;;;1.50;;
20870;SDS011;10595;51.218;3.452;2023-08-01T13:44:58;5.97;;;1.40;;
20870;SDS011;10595;51.218;3.452;2023-08-01T13:47:24;5.73;;;1.40;;
20870;SDS011;10595;51.218;3.452;2023-08-01T13:49:51;3.23;;;1.50;;
20870;SDS011;10595;51.218;3.452;2023-08-01T13:52:17;10.60;;;1.83;;
20870;SDS011;10595;51.218;3.452;2023-08-01T13:54:43;4.50;;;1.50;;
20870;SDS011;10595;51.218;3.452;2023-08-01T13:57:09;5.17;;;1.60;;
20870;SDS011;10595;51.218;3.452;2023-08-01T13:59:35;6.63;;;1.80;;
20870;SDS011;10595;51.218;3.452;2023-08-01T14:02:01;6.57;;;1.60;;
20870;SDS011;10595;51.218;3.452;2023-08-01T14:04:28;7.23;;;1.53;;
20870;SDS011;10595;51.218;3.452;2023-08-01T14:06:54;6.73;;;1.47;;
20870;SDS011;10595;51.218;3.452;2023-08-01T14:09:20;3.47;;;1.70;;
20870;SDS011;10595;51.218;3.452;2023-08-01T14:11:46;3.73;;;1.40;;
20870;SDS011;10595;51.218;3.452;2023-08-01T14:14:12;4.97;;;1.70;;
20870;SDS011;10595;51.218;3.452;2023-08-01T14:16:38;7.30;;;1.70;;
20870;SDS011;10595;51.218;3.452;2023-08-01T14:19:04;5.77;;;1.80;;
20870;SDS011;10595;51.218;3.452;2023-08-01T14:21:31;8.77;;;1.57;;
20870;SDS011;10595;51.218;3.452;2023-08-01T14:23:57;7.50;;;1.70;;
20870;SDS011;10595;51.218;3.452;2023-08-01T14:26:23;3.57;;;1.47;;
20870;SDS011;10595;51.218;3.452;2023-08-01T14:28:49;7.47;;;1.63;;
20870;SDS011;10595;51.218;3.452;2023-08-01T14:31:15;4.27;;;1.33;;
20870;SDS011;10595;51.218;3.452;2023-08-01T14:33:41;8.00;;;2.00;;
20870;SDS011;10595;51.218;3.452;2023-08-01T14:36:08;3.93;;;1.50;;